createdAt,value
2022-12-31T00:00:46.970Z,4.88
2022-12-31T00:03:52.543Z,3.08
2022-12-31T00:06:57.179Z,2.75
2022-12-31T00:10:02.023Z,3.20
2022-12-31T00:13:09.573Z,3.45
2022-12-31T00:16:25.959Z,3.45
2022-12-31T00:19:31.072Z,13.40
2022-12-31T00:22:35.748Z,7.40
2022-12-31T00:25:40.084Z,3.45
2022-12-31T00:28:45.412Z,1.60
2022-12-31T00:31:49.931Z,1.40
2022-12-31T00:34:54.508Z,1.13
2022-12-31T00:37:59.003Z,1.10
2022-12-31T00:41:04.659Z,1.15
2022-12-31T00:44:11.789Z,0.85
2022-12-31T00:47:16.468Z,0.75
2022-12-31T00:50:21.151Z,0.90
2022-12-31T00:53:26.564Z,0.90
2022-12-31T00:56:32.604Z,2.10
2022-12-31T00:59:37.156Z,2.75
2022-12-31T01:02:41.782Z,2.45
2022-12-31T01:05:46.708Z,1.42
2022-12-31T01:08:53.694Z,2.28
2022-12-31T01:11:58.059Z,12.70
2022-12-31T01:15:02.545Z,6.55
2022-12-31T01:18:08.579Z,9.57
2022-12-31T01:21:14.396Z,8.38
2022-12-31T01:24:19.528Z,4.93
2022-12-31T01:27:24.076Z,7.50
2022-12-31T01:30:29.371Z,4.63
2022-12-31T01:33:34.609Z,3.00
2022-12-31T01:36:39.718Z,2.80
2022-12-31T01:39:44.409Z,2.70
2022-12-31T01:42:57.057Z,2.00
2022-12-31T01:46:01.552Z,1.90
2022-12-31T01:49:43.905Z,1.75
2022-12-31T01:52:53.815Z,2.05
2022-12-31T01:56:00.112Z,3.22
2022-12-31T01:59:08.797Z,11.98
2022-12-31T02:02:15.011Z,6.97
2022-12-31T02:05:53.365Z,3.97
2022-12-31T02:08:58.629Z,4.20
2022-12-31T02:12:03.361Z,4.22
2022-12-31T02:15:08.814Z,6.38
2022-12-31T02:18:37.217Z,3.88
2022-12-31T02:22:12.519Z,4.47
2022-12-31T02:25:30.368Z,3.53
2022-12-31T02:29:05.733Z,2.72
2022-12-31T02:33:02.753Z,2.78
2022-12-31T02:36:17.986Z,3.80
2022-12-31T02:39:22.726Z,4.00
2022-12-31T02:42:26.879Z,2.60
2022-12-31T02:45:41.025Z,2.67
2022-12-31T02:48:55.334Z,2.97
2022-12-31T02:52:14.693Z,3.47
2022-12-31T02:55:48.641Z,2.90
2022-12-31T02:59:46.700Z,3.60
2022-12-31T03:02:53.231Z,6.22
2022-12-31T03:06:00.333Z,5.10
2022-12-31T03:09:14.150Z,4.97
2022-12-31T03:12:41.611Z,3.55
2022-12-31T03:15:46.051Z,2.78
2022-12-31T03:19:10.562Z,2.53
2022-12-31T03:22:30.280Z,3.00
2022-12-31T03:25:35.784Z,2.53
2022-12-31T03:28:47.973Z,2.75
2022-12-31T03:31:53.054Z,2.22
2022-12-31T03:34:57.723Z,2.63
2022-12-31T03:38:03.455Z,2.10
2022-12-31T03:41:11.240Z,2.90
2022-12-31T03:44:15.775Z,2.70
2022-12-31T03:47:20.614Z,2.13
2022-12-31T03:50:25.264Z,2.20
2022-12-31T03:53:30.246Z,2.65
2022-12-31T03:56:34.613Z,1.80
2022-12-31T03:59:39.228Z,3.25
2022-12-31T04:02:44.274Z,2.40
2022-12-31T04:05:55.031Z,3.40
2022-12-31T04:08:59.502Z,2.42
2022-12-31T04:12:04.214Z,4.22
2022-12-31T04:15:11.630Z,4.65
2022-12-31T04:18:15.973Z,5.18
2022-12-31T04:21:20.343Z,4.45
2022-12-31T04:24:25.266Z,3.75
2022-12-31T04:27:30.470Z,3.40
2022-12-31T04:30:35.187Z,2.55
2022-12-31T04:33:39.841Z,2.78
2022-12-31T04:36:44.437Z,2.90
2022-12-31T04:39:49.129Z,2.65
2022-12-31T04:42:53.755Z,2.75
2022-12-31T04:45:58.171Z,2.70
2022-12-31T04:49:02.948Z,2.70
2022-12-31T04:52:07.639Z,2.53
2022-12-31T04:55:12.219Z,2.42
2022-12-31T04:58:16.799Z,2.42
2022-12-31T05:01:22.018Z,2.67
2022-12-31T05:04:27.032Z,2.60
2022-12-31T05:07:31.858Z,2.65
2022-12-31T05:10:40.863Z,2.50
2022-12-31T05:13:45.440Z,3.10
2022-12-31T05:16:50.619Z,2.60
2022-12-31T05:19:54.924Z,2.45
2022-12-31T05:22:59.914Z,2.65
2022-12-31T05:26:04.497Z,2.00
2022-12-31T05:29:09.124Z,1.80
2022-12-31T05:32:13.571Z,1.58
2022-12-31T05:35:18.345Z,2.30
2022-12-31T05:38:22.694Z,1.95
2022-12-31T05:41:27.302Z,1.83
2022-12-31T05:44:32.054Z,1.55
2022-12-31T05:47:36.615Z,1.27
2022-12-31T05:50:42.096Z,1.00
2022-12-31T05:53:46.425Z,1.00
2022-12-31T05:56:50.853Z,0.70
2022-12-31T05:59:55.474Z,0.80
2022-12-31T06:03:00.299Z,0.75
2022-12-31T06:06:05.406Z,0.80
2022-12-31T06:09:09.807Z,0.77
2022-12-31T06:12:14.488Z,0.80
2022-12-31T06:15:19.261Z,0.90
2022-12-31T06:18:23.847Z,0.90
2022-12-31T06:21:29.622Z,0.80
2022-12-31T06:24:34.328Z,0.80
2022-12-31T06:27:38.610Z,0.68
2022-12-31T06:30:43.167Z,0.82
2022-12-31T06:33:48.006Z,0.88
2022-12-31T06:36:52.726Z,0.82
2022-12-31T06:39:57.174Z,1.13
2022-12-31T06:43:01.633Z,0.63
2022-12-31T06:46:10.491Z,0.90
2022-12-31T06:49:15.055Z,0.93
2022-12-31T06:52:19.974Z,1.00
2022-12-31T06:55:24.927Z,0.80
2022-12-31T06:58:30.077Z,1.10
2022-12-31T07:01:51.292Z,0.60
2022-12-31T07:05:08.432Z,0.70
2022-12-31T07:08:38.094Z,0.80
2022-12-31T07:11:53.856Z,0.90
2022-12-31T07:15:41.110Z,0.75
2022-12-31T07:19:10.055Z,0.70
2022-12-31T07:22:17.242Z,0.65
2022-12-31T07:25:28.609Z,0.90
2022-12-31T07:29:08.805Z,0.85
2022-12-31T07:33:12.742Z,1.17
2022-12-31T07:36:59.355Z,1.00
2022-12-31T07:40:53.678Z,1.17
2022-12-31T07:44:37.633Z,0.80
2022-12-31T07:47:42.756Z,0.77
2022-12-31T07:50:47.688Z,1.10
2022-12-31T07:53:52.357Z,1.25
2022-12-31T07:56:58.137Z,1.70
2022-12-31T08:00:14.051Z,1.13
2022-12-31T08:03:40.764Z,1.48
2022-12-31T08:07:17.156Z,1.40
2022-12-31T08:10:28.633Z,1.17
2022-12-31T08:13:33.224Z,1.40
2022-12-31T08:16:38.418Z,1.40
2022-12-31T08:19:45.635Z,1.02
2022-12-31T08:23:11.228Z,0.80
2022-12-31T08:26:27.637Z,0.70
2022-12-31T08:29:41.131Z,0.60
2022-12-31T08:33:07.609Z,0.60
2022-12-31T08:36:56.419Z,0.50
2022-12-31T08:40:13.023Z,0.70
2022-12-31T08:43:44.909Z,0.63
2022-12-31T08:46:57.981Z,0.70
2022-12-31T08:50:02.894Z,0.60
2022-12-31T08:53:08.203Z,0.90
2022-12-31T08:56:51.697Z,1.00
2022-12-31T09:00:17.596Z,0.60
2022-12-31T09:03:49.783Z,0.60
2022-12-31T09:07:02.908Z,1.00
2022-12-31T09:11:10.556Z,0.80
2022-12-31T09:14:33.300Z,0.88
2022-12-31T09:17:50.878Z,0.98
2022-12-31T09:20:55.563Z,0.90
2022-12-31T09:24:05.933Z,1.10
2022-12-31T09:27:28.835Z,1.30
2022-12-31T09:30:57.834Z,1.95
2022-12-31T09:34:18.845Z,1.80
2022-12-31T09:37:49.842Z,2.47
2022-12-31T09:41:25.597Z,2.03
2022-12-31T09:44:43.825Z,1.80
2022-12-31T09:48:46.212Z,1.75
2022-12-31T09:52:15.811Z,1.50
2022-12-31T09:55:54.779Z,1.55
2022-12-31T09:59:12.727Z,1.30
2022-12-31T10:02:35.959Z,1.08
2022-12-31T10:05:53.980Z,1.15
2022-12-31T10:09:35.005Z,1.80
2022-12-31T10:13:13.064Z,1.77
2022-12-31T10:16:25.400Z,2.25
2022-12-31T10:20:06.143Z,2.53
2022-12-31T10:23:57.607Z,1.63
2022-12-31T10:27:34.042Z,1.58
2022-12-31T10:30:54.149Z,1.55
2022-12-31T10:35:06.663Z,1.50
2022-12-31T10:39:00.176Z,1.45
2022-12-31T10:42:29.743Z,1.47
2022-12-31T10:46:11.165Z,1.40
2022-12-31T10:49:40.446Z,1.60
2022-12-31T10:53:44.073Z,1.30
2022-12-31T10:57:23.793Z,1.83
2022-12-31T11:00:44.147Z,1.73
2022-12-31T11:04:09.822Z,1.85
2022-12-31T11:07:56.807Z,1.50
2022-12-31T11:11:38.664Z,1.70
2022-12-31T11:14:58.656Z,1.50
2022-12-31T11:18:27.907Z,1.50
2022-12-31T11:22:06.553Z,1.98
2022-12-31T11:25:38.006Z,1.95
2022-12-31T11:29:03.818Z,1.70
2022-12-31T11:32:39.978Z,2.17
2022-12-31T11:36:12.594Z,1.55
2022-12-31T11:39:47.909Z,1.88
2022-12-31T11:43:15.835Z,2.28
2022-12-31T11:47:12.987Z,2.08
2022-12-31T11:51:01.803Z,1.85
2022-12-31T11:54:31.202Z,1.75
2022-12-31T11:57:38.898Z,2.13
2022-12-31T12:00:58.756Z,1.67
2022-12-31T12:04:03.775Z,2.30
2022-12-31T12:07:15.528Z,2.22
2022-12-31T12:10:35.742Z,1.77
2022-12-31T12:13:41.455Z,2.22
2022-12-31T12:16:46.329Z,2.28
2022-12-31T12:19:56.526Z,1.92
2022-12-31T12:23:13.195Z,2.00
2022-12-31T12:26:35.338Z,1.90
2022-12-31T12:29:40.192Z,2.20
2022-12-31T12:33:01.331Z,1.70
2022-12-31T12:36:16.186Z,1.80
2022-12-31T12:39:25.663Z,1.45
2022-12-31T12:42:31.082Z,1.65
2022-12-31T12:46:00.492Z,1.67
2022-12-31T12:49:05.674Z,2.00
2022-12-31T12:53:00.668Z,1.80
2022-12-31T12:56:14.313Z,2.35
2022-12-31T13:00:00.311Z,2.05
2022-12-31T13:04:23.709Z,1.85
2022-12-31T13:07:48.940Z,2.35
2022-12-31T13:11:21.827Z,2.22
2022-12-31T13:15:07.005Z,1.63
2022-12-31T13:18:54.181Z,2.20
2022-12-31T13:22:05.710Z,2.15
2022-12-31T13:25:46.755Z,2.00
2022-12-31T13:28:53.682Z,2.33
2022-12-31T13:32:03.400Z,1.92
2022-12-31T13:35:33.118Z,1.95
2022-12-31T13:39:05.616Z,2.15
2022-12-31T13:42:21.998Z,2.30
2022-12-31T13:45:43.617Z,2.08
2022-12-31T13:49:01.831Z,1.80
2022-12-31T13:52:27.608Z,2.00
2022-12-31T13:55:56.475Z,2.30
2022-12-31T13:59:04.810Z,2.97
2022-12-31T14:02:41.572Z,2.15
2022-12-31T14:05:56.882Z,2.30
2022-12-31T14:09:01.617Z,2.30
2022-12-31T14:12:44.469Z,2.35
2022-12-31T14:16:18.965Z,2.60
2022-12-31T14:23:18.396Z,2.30
2022-12-31T14:26:39.042Z,3.30
2022-12-31T14:30:01.255Z,3.30
2022-12-31T14:33:32.443Z,3.15
2022-12-31T14:37:13.540Z,3.03
2022-12-31T14:41:02.446Z,2.83
2022-12-31T14:44:47.889Z,2.95
2022-12-31T14:48:21.544Z,2.53
2022-12-31T14:51:30.820Z,2.95
2022-12-31T14:54:37.646Z,2.40
2022-12-31T14:58:25.908Z,3.00
2022-12-31T15:01:15.975Z,2.63
2022-12-31T15:04:45.627Z,2.55
2022-12-31T15:08:43.636Z,3.05
2022-12-31T15:12:24.985Z,3.10
2022-12-31T15:15:57.579Z,2.60
2022-12-31T15:19:49.967Z,2.88
2022-12-31T15:22:55.465Z,2.88
2022-12-31T15:26:01.547Z,3.17
2022-12-31T15:29:19.468Z,3.03
2022-12-31T15:32:40.113Z,3.00
2022-12-31T15:35:52.625Z,3.30
2022-12-31T15:39:12.217Z,2.83
2022-12-31T15:42:49.526Z,3.10
2022-12-31T15:45:56.600Z,3.30
2022-12-31T15:49:15.564Z,2.88
2022-12-31T15:52:29.828Z,3.42
2022-12-31T15:58:49.546Z,2.50
2022-12-31T16:01:56.944Z,2.72
2022-12-31T16:05:02.083Z,3.05
2022-12-31T16:08:06.545Z,4.53
2022-12-31T16:11:11.437Z,3.20
2022-12-31T16:14:25.632Z,3.90
2022-12-31T16:17:35.365Z,5.00
2022-12-31T16:20:47.341Z,4.45
2022-12-31T16:23:55.185Z,4.20
2022-12-31T16:27:16.844Z,5.43
